createdAt,value
2023-02-22T00:00:43.223Z,28.88
2023-02-22T00:03:15.077Z,33.15
2023-02-22T00:05:47.044Z,29.13
2023-02-22T00:08:17.745Z,27.92
2023-02-22T00:10:44.821Z,34.67
2023-02-22T00:13:14.022Z,25.40
2023-02-22T00:15:41.528Z,34.53
2023-02-22T00:18:10.444Z,32.35
2023-02-22T00:20:38.906Z,34.20
2023-02-22T00:23:14.019Z,29.13
2023-02-22T00:25:40.584Z,34.55
2023-02-22T00:28:07.164Z,29.65
2023-02-22T00:30:34.431Z,32.90
2023-02-22T00:33:01.460Z,31.63
2023-02-22T00:35:30.204Z,31.85
2023-02-22T00:37:59.338Z,32.30
2023-02-22T00:40:30.563Z,27.08
2023-02-22T00:42:59.105Z,18.33
2023-02-22T00:45:27.417Z,24.25
2023-02-22T00:47:57.225Z,23.20
2023-02-22T00:50:25.499Z,30.60
2023-02-22T00:52:53.008Z,30.25
2023-02-22T00:55:22.612Z,26.15
2023-02-22T00:57:50.024Z,31.55
2023-02-22T01:00:25.736Z,30.05
2023-02-22T01:02:52.411Z,33.13
2023-02-22T01:05:23.158Z,26.45
2023-02-22T01:07:49.892Z,25.23
2023-02-22T01:10:20.473Z,26.20
2023-02-22T01:12:48.601Z,28.55
2023-02-22T01:15:16.356Z,26.38
2023-02-22T01:17:43.816Z,30.95
2023-02-22T01:20:14.210Z,31.02
2023-02-22T01:22:42.262Z,31.52
2023-02-22T01:25:10.910Z,26.85
2023-02-22T01:27:38.562Z,28.48
2023-02-22T01:30:08.627Z,25.20
2023-02-22T01:32:40.371Z,27.13
2023-02-22T01:35:10.076Z,30.75
2023-02-22T01:37:36.785Z,24.48
2023-02-22T01:40:07.283Z,31.13
2023-02-22T01:42:34.233Z,30.63
2023-02-22T01:45:34.360Z,25.67
2023-02-22T01:48:16.811Z,24.63
2023-02-22T01:50:55.708Z,26.65
2023-02-22T01:53:26.717Z,38.97
2023-02-22T01:55:56.178Z,36.80
2023-02-22T02:00:51.078Z,24.27
2023-02-22T02:03:27.734Z,20.17
2023-02-22T02:05:58.766Z,21.65
2023-02-22T02:08:36.215Z,26.48
2023-02-22T02:11:08.718Z,17.45
2023-02-22T02:13:36.465Z,18.05
2023-02-22T02:16:03.538Z,17.77
2023-02-22T02:18:30.177Z,16.60
2023-02-22T02:20:56.646Z,17.75
2023-02-22T02:24:04.889Z,18.13
2023-02-22T02:26:43.974Z,25.40
2023-02-22T02:29:42.409Z,23.05
2023-02-22T02:32:46.388Z,20.77
2023-02-22T02:35:33.190Z,18.35
2023-02-22T02:38:18.710Z,32.30
2023-02-22T02:41:10.762Z,18.17
2023-02-22T02:43:59.394Z,32.97
2023-02-22T02:46:40.178Z,17.45
2023-02-22T02:49:12.365Z,24.23
2023-02-22T02:51:44.232Z,26.15
2023-02-22T02:54:13.086Z,34.00
2023-02-22T02:56:40.707Z,21.48
2023-02-22T02:59:40.272Z,17.58
2023-02-22T03:02:25.467Z,26.67
2023-02-22T03:04:59.995Z,29.10
2023-02-22T03:07:38.839Z,24.55
2023-02-22T03:10:42.435Z,26.65
2023-02-22T03:13:33.457Z,28.30
2023-02-22T03:16:16.006Z,30.00
2023-02-22T03:18:54.922Z,25.73
2023-02-22T03:21:50.616Z,21.83
2023-02-22T03:24:17.059Z,28.88
2023-02-22T03:26:50.076Z,19.90
2023-02-22T03:29:21.421Z,31.50
2023-02-22T03:31:56.169Z,35.15
2023-02-22T03:34:26.922Z,22.70
2023-02-22T03:37:00.222Z,28.52
2023-02-22T03:39:31.127Z,37.05
2023-02-22T03:42:06.868Z,23.92
2023-02-22T03:44:35.509Z,29.15
2023-02-22T03:47:06.721Z,29.35
2023-02-22T03:49:37.657Z,21.92
2023-02-22T03:52:07.379Z,23.15
2023-02-22T03:54:35.173Z,22.98
2023-02-22T03:57:25.164Z,20.23
2023-02-22T03:59:51.734Z,27.42
2023-02-22T04:02:19.082Z,18.65
2023-02-22T04:04:48.890Z,22.58
2023-02-22T04:07:16.133Z,30.52
2023-02-22T04:09:42.703Z,28.08
2023-02-22T04:12:09.227Z,29.42
2023-02-22T04:14:35.814Z,17.65
2023-02-22T04:17:02.396Z,21.45
2023-02-22T04:19:28.900Z,28.08
2023-02-22T04:21:55.749Z,26.73
2023-02-22T04:24:22.287Z,18.98
2023-02-22T04:26:48.856Z,24.70
2023-02-22T04:29:15.500Z,25.98
2023-02-22T04:31:42.041Z,25.00
2023-02-22T04:34:08.585Z,22.17
2023-02-22T04:36:35.087Z,28.63
2023-02-22T04:39:01.623Z,31.65
2023-02-22T04:41:28.514Z,23.48
2023-02-22T04:43:55.056Z,21.98
2023-02-22T04:46:21.622Z,17.02
2023-02-22T04:48:48.213Z,21.90
2023-02-22T04:51:15.560Z,17.63
2023-02-22T04:53:42.285Z,16.55
2023-02-22T04:56:08.916Z,19.90
2023-02-22T04:58:35.436Z,16.13
2023-02-22T05:01:01.938Z,20.73
2023-02-22T05:03:28.564Z,20.45
2023-02-22T05:05:55.075Z,22.35
2023-02-22T05:08:21.622Z,19.75
2023-02-22T05:10:48.225Z,29.15
2023-02-22T05:13:14.786Z,14.88
2023-02-22T05:15:41.394Z,22.52
2023-02-22T05:18:08.092Z,16.15
2023-02-22T05:20:35.687Z,22.23
2023-02-22T05:23:03.593Z,19.48
2023-02-22T05:25:30.072Z,23.38
2023-02-22T05:28:00.707Z,18.90
2023-02-22T05:30:32.219Z,15.95
2023-02-22T05:32:59.853Z,19.23
2023-02-22T05:35:27.215Z,18.45
2023-02-22T05:37:53.826Z,23.27
2023-02-22T05:40:23.271Z,20.42
2023-02-22T05:42:50.861Z,24.48
2023-02-22T05:45:19.655Z,27.55
2023-02-22T05:47:47.308Z,28.45
2023-02-22T05:50:15.093Z,25.15
2023-02-22T05:52:41.622Z,28.15
2023-02-22T05:55:10.380Z,21.40
2023-02-22T05:57:36.932Z,25.63
2023-02-22T06:00:05.646Z,25.48
2023-02-22T06:02:32.383Z,25.90
2023-02-22T06:04:59.682Z,21.90
2023-02-22T06:07:27.134Z,21.73
2023-02-22T06:09:53.841Z,22.35
2023-02-22T06:12:20.391Z,22.52
2023-02-22T06:14:47.075Z,22.55
2023-02-22T06:17:15.796Z,22.17
2023-02-22T06:19:42.400Z,24.73
2023-02-22T06:22:15.988Z,25.60
2023-02-22T06:24:42.504Z,23.10
2023-02-22T06:27:08.973Z,23.77
2023-02-22T06:29:35.681Z,22.10
2023-02-22T06:32:02.407Z,21.13
2023-02-22T06:34:28.996Z,22.30
2023-02-22T06:36:55.529Z,19.23
2023-02-22T06:39:22.180Z,24.88
2023-02-22T06:41:50.558Z,22.95
2023-02-22T06:44:17.117Z,20.70
2023-02-22T06:46:51.233Z,19.70
2023-02-22T06:49:19.630Z,21.83
2023-02-22T06:51:47.039Z,18.15
2023-02-22T06:54:14.122Z,19.38
2023-02-22T06:56:40.699Z,23.42
2023-02-22T06:59:08.541Z,18.33
2023-02-22T07:01:35.341Z,25.45
2023-02-22T07:04:02.304Z,21.60
2023-02-22T07:06:28.827Z,21.75
2023-02-22T07:08:55.404Z,25.73
2023-02-22T07:11:21.882Z,21.95
2023-02-22T07:13:48.419Z,20.55
2023-02-22T07:16:14.946Z,19.92
2023-02-22T07:18:41.564Z,25.77
2023-02-22T07:21:08.149Z,19.30
2023-02-22T07:23:34.778Z,18.13
2023-02-22T07:26:01.823Z,16.00
2023-02-22T07:28:28.600Z,20.10
2023-02-22T07:30:56.316Z,18.70
2023-02-22T07:33:23.247Z,23.30
2023-02-22T07:35:50.951Z,23.88
2023-02-22T07:38:19.679Z,22.20
2023-02-22T07:40:46.922Z,17.92
2023-02-22T07:43:16.434Z,19.30
2023-02-22T07:45:43.639Z,17.92
2023-02-22T07:48:15.092Z,23.42
2023-02-22T07:50:43.457Z,17.80
2023-02-22T07:53:16.377Z,19.20
2023-02-22T07:55:43.632Z,21.63
2023-02-22T07:58:15.069Z,21.42
2023-02-22T08:00:44.237Z,17.92
2023-02-22T08:03:13.452Z,19.88
2023-02-22T08:08:08.189Z,19.38
2023-02-22T08:10:35.751Z,17.50
2023-02-22T08:13:03.122Z,17.90
2023-02-22T08:15:36.441Z,18.20
2023-02-22T08:18:05.439Z,20.23
2023-02-22T08:20:32.057Z,19.40
2023-02-22T08:22:58.922Z,16.98
2023-02-22T08:25:28.426Z,17.13
2023-02-22T08:28:04.635Z,20.83
2023-02-22T08:30:32.675Z,22.52
2023-02-22T08:32:59.621Z,20.73
2023-02-22T08:35:27.522Z,19.83
2023-02-22T08:37:57.351Z,17.83
2023-02-22T08:40:27.690Z,17.77
2023-02-22T08:42:54.591Z,21.98
2023-02-22T08:45:21.156Z,19.40
2023-02-22T08:47:48.227Z,17.35
2023-02-22T08:50:24.627Z,23.77
2023-02-22T08:52:52.298Z,18.90
2023-02-22T08:55:21.048Z,18.17
2023-02-22T08:57:47.585Z,20.42
2023-02-22T09:00:15.801Z,17.40
2023-02-22T09:02:42.312Z,14.43
2023-02-22T09:05:08.877Z,16.25
2023-02-22T09:07:35.430Z,17.17
2023-02-22T09:10:02.000Z,20.83
2023-02-22T09:12:28.675Z,16.77
2023-02-22T09:14:55.176Z,15.77
2023-02-22T09:17:21.760Z,16.98
2023-02-22T09:19:48.239Z,14.57
2023-02-22T09:22:14.797Z,14.25
2023-02-22T09:24:43.052Z,15.80
2023-02-22T09:27:10.879Z,17.73
2023-02-22T09:29:37.648Z,13.30
2023-02-22T09:32:04.600Z,16.95
2023-02-22T09:34:35.274Z,13.07
2023-02-22T09:37:01.925Z,18.23
2023-02-22T09:39:28.556Z,16.45
2023-02-22T09:42:02.159Z,14.07
2023-02-22T09:44:55.263Z,16.52
2023-02-22T09:47:32.537Z,14.32
2023-02-22T09:50:17.631Z,13.77
2023-02-22T09:53:05.125Z,13.52
2023-02-22T09:58:05.983Z,15.10
2023-02-22T10:00:39.141Z,16.10
2023-02-22T10:03:23.348Z,16.52
2023-02-22T10:06:00.914Z,13.85
2023-02-22T10:08:33.352Z,14.23
2023-02-22T10:11:23.089Z,13.18
2023-02-22T10:14:01.528Z,15.45
2023-02-22T10:16:34.085Z,14.23
2023-02-22T10:19:08.266Z,15.55
2023-02-22T10:21:53.623Z,16.42
2023-02-22T10:24:45.457Z,16.70
2023-02-22T10:27:29.254Z,13.20
2023-02-22T10:30:15.526Z,17.27
2023-02-22T10:33:11.624Z,16.17
2023-02-22T10:35:41.321Z,13.98
2023-02-22T10:38:20.983Z,12.48
2023-02-22T10:41:02.875Z,13.63
2023-02-22T10:43:30.708Z,14.73
2023-02-22T10:46:01.804Z,11.85
2023-02-22T10:48:31.878Z,14.43
2023-02-22T10:51:04.950Z,12.38
2023-02-22T10:53:32.701Z,13.40
2023-02-22T10:56:24.342Z,12.60
2023-02-22T10:59:04.498Z,12.70
2023-02-22T11:01:31.103Z,14.30
2023-02-22T11:04:04.122Z,13.50
2023-02-22T11:06:33.158Z,14.00
2023-02-22T11:09:13.670Z,12.18
2023-02-22T11:11:43.474Z,14.60
2023-02-22T11:14:11.332Z,12.32
2023-02-22T11:16:46.152Z,12.27
2023-02-22T11:19:12.738Z,12.77
2023-02-22T11:21:39.812Z,10.13
2023-02-22T11:24:10.512Z,11.07
2023-02-22T11:26:44.568Z,10.65
2023-02-22T11:29:18.436Z,12.95
2023-02-22T11:31:49.267Z,9.82
2023-02-22T11:34:26.535Z,11.23
2023-02-22T11:36:53.076Z,10.43
2023-02-22T11:39:29.249Z,11.95
2023-02-22T11:41:56.695Z,15.85
2023-02-22T11:44:25.147Z,15.40
2023-02-22T11:46:56.901Z,10.88
2023-02-22T11:49:33.269Z,9.63
2023-02-22T11:52:16.288Z,10.65
2023-02-22T11:54:57.914Z,11.18
2023-02-22T11:57:41.281Z,11.85
2023-02-22T12:00:32.855Z,11.75
2023-02-22T12:03:24.400Z,12.80
2023-02-22T12:06:08.306Z,9.82
2023-02-22T12:08:43.988Z,10.18
2023-02-22T12:11:19.533Z,11.25
2023-02-22T12:14:07.629Z,10.82
2023-02-22T12:16:55.961Z,10.00
2023-02-22T12:19:38.060Z,13.00
2023-02-22T12:22:13.472Z,13.50
2023-02-22T12:24:46.908Z,10.20
2023-02-22T12:27:24.175Z,13.20
2023-02-22T12:29:57.818Z,12.27
2023-02-22T12:32:44.445Z,14.95
2023-02-22T12:35:23.100Z,10.07
2023-02-22T12:38:17.048Z,10.35
2023-02-22T12:40:54.513Z,12.00
2023-02-22T12:43:27.473Z,12.60
2023-02-22T12:46:20.204Z,11.50
2023-02-22T12:49:00.896Z,12.60
2023-02-22T12:51:54.722Z,12.52
2023-02-22T12:54:42.268Z,10.43
2023-02-22T12:57:17.028Z,10.23
2023-02-22T13:02:27.337Z,12.05
2023-02-22T13:04:54.836Z,11.52
2023-02-22T13:07:37.009Z,11.82
2023-02-22T13:10:23.574Z,13.93
2023-02-22T13:13:06.924Z,12.82
2023-02-22T13:16:22.662Z,10.90
2023-02-22T13:19:03.800Z,12.45
2023-02-22T13:21:49.538Z,12.27
2023-02-22T13:24:40.762Z,11.50
2023-02-22T13:27:19.257Z,12.48
2023-02-22T13:29:50.130Z,13.70
2023-02-22T13:32:32.026Z,12.40
2023-02-22T13:35:29.647Z,10.98
2023-02-22T13:38:22.797Z,11.85
2023-02-22T13:43:43.788Z,11.05
2023-02-22T13:46:35.174Z,11.75
2023-02-22T13:49:39.301Z,12.00
2023-02-22T13:52:13.860Z,12.52
2023-02-22T13:54:57.418Z,11.02
2023-02-22T13:57:49.914Z,11.90
2023-02-22T14:00:17.006Z,8.55
2023-02-22T14:03:08.956Z,10.63
2023-02-22T14:05:49.651Z,11.88
2023-02-22T14:08:19.308Z,11.35
2023-02-22T14:10:46.120Z,11.45
2023-02-22T14:13:14.555Z,13.82
2023-02-22T14:16:05.160Z,10.32
2023-02-22T14:18:44.247Z,10.20
2023-02-22T14:21:14.111Z,15.15
2023-02-22T14:23:48.639Z,12.07
2023-02-22T14:26:30.200Z,14.55
2023-02-22T14:29:08.955Z,14.15
2023-02-22T14:31:37.516Z,13.13
2023-02-22T14:34:09.101Z,11.52
2023-02-22T14:36:57.874Z,11.57
2023-02-22T14:39:46.177Z,13.20
2023-02-22T14:42:34.308Z,13.95
2023-02-22T14:45:13.687Z,12.32
2023-02-22T14:47:49.653Z,13.02
2023-02-22T14:50:27.661Z,11.55
2023-02-22T14:53:04.188Z,11.30
2023-02-22T14:55:37.205Z,13.30
2023-02-22T14:58:18.711Z,14.18
2023-02-22T15:00:52.769Z,14.60
2023-02-22T15:03:22.012Z,11.88
2023-02-22T15:05:49.789Z,13.20
2023-02-22T15:08:18.263Z,13.00
2023-02-22T15:10:51.743Z,12.20
2023-02-22T15:13:19.652Z,14.57
2023-02-22T15:16:00.515Z,12.40
2023-02-22T15:18:40.805Z,11.30
2023-02-22T15:21:13.486Z,12.48
2023-02-22T15:23:46.945Z,13.60
2023-02-22T15:26:25.535Z,12.15
2023-02-22T15:28:59.694Z,10.52
2023-02-22T15:31:34.316Z,12.45
2023-02-22T15:34:16.890Z,12.13
2023-02-22T15:36:45.348Z,10.23
2023-02-22T15:39:25.637Z,11.32
2023-02-22T15:42:23.044Z,15.10
2023-02-22T15:44:58.144Z,14.98
2023-02-22T15:47:29.782Z,10.63
2023-02-22T15:50:25.797Z,13.30
2023-02-22T15:53:09.402Z,12.90
2023-02-22T15:55:43.867Z,16.40
2023-02-22T15:58:17.023Z,13.18
2023-02-22T16:01:00.024Z,13.25
2023-02-22T16:03:33.937Z,16.02
2023-02-22T16:06:00.508Z,16.98
2023-02-22T16:08:53.751Z,14.27
2023-02-22T16:11:22.761Z,14.02
2023-02-22T16:13:54.468Z,14.52
2023-02-22T16:16:27.468Z,13.80
2023-02-22T16:19:35.752Z,16.20
2023-02-22T16:22:04.891Z,17.92
2023-02-22T16:24:34.733Z,17.10
2023-02-22T16:27:06.568Z,15.00
2023-02-22T16:29:33.636Z,14.27
2023-02-22T16:32:01.869Z,17.80
2023-02-22T16:34:28.460Z,16.27
2023-02-22T16:36:55.876Z,14.27
2023-02-22T16:39:31.143Z,14.52
2023-02-22T16:42:00.329Z,15.00
2023-02-22T16:44:27.853Z,15.15
2023-02-22T16:46:58.785Z,15.80
2023-02-22T16:49:25.952Z,14.93
2023-02-22T16:51:59.540Z,14.80
2023-02-22T16:54:29.733Z,16.48
2023-02-22T16:57:00.349Z,12.05
2023-02-22T16:59:27.086Z,13.25
2023-02-22T17:01:53.828Z,15.48
2023-02-22T17:04:24.302Z,15.68
2023-02-22T17:06:50.942Z,18.35
2023-02-22T17:09:20.120Z,17.73
2023-02-22T17:11:50.399Z,16.45
2023-02-22T17:14:23.080Z,15.15
2023-02-22T17:16:51.028Z,15.55
2023-02-22T17:19:21.214Z,15.10
2023-02-22T17:21:49.614Z,15.82
2023-02-22T17:24:25.072Z,15.95
2023-02-22T17:26:57.377Z,14.68
2023-02-22T17:29:24.375Z,15.93
2023-02-22T17:31:52.886Z,16.33
2023-02-22T17:34:19.508Z,15.15
2023-02-22T17:36:46.610Z,15.55
2023-02-22T17:39:13.542Z,17.27
2023-02-22T17:41:40.947Z,16.23
2023-02-22T17:44:07.997Z,15.43
2023-02-22T17:46:36.681Z,17.33
2023-02-22T17:49:03.512Z,15.65
2023-02-22T17:51:30.305Z,16.60
2023-02-22T17:53:57.149Z,16.08
2023-02-22T17:56:23.798Z,17.75
2023-02-22T17:58:54.233Z,16.38
2023-02-22T18:01:32.474Z,16.80
2023-02-22T18:04:02.281Z,19.00
2023-02-22T18:06:30.659Z,19.60
2023-02-22T18:08:58.884Z,20.35
2023-02-22T18:11:27.547Z,20.35
2023-02-22T18:13:56.334Z,18.60
2023-02-22T18:16:25.723Z,20.52
2023-02-22T18:18:53.795Z,18.08
2023-02-22T18:21:20.474Z,20.00
2023-02-22T18:23:47.089Z,20.27
2023-02-22T18:26:21.982Z,17.98
2023-02-22T18:28:49.124Z,17.73
2023-02-22T18:31:19.045Z,18.83
2023-02-22T18:33:48.627Z,20.33
2023-02-22T18:36:16.378Z,20.77
2023-02-22T18:38:43.974Z,22.10
2023-02-22T18:41:15.885Z,22.08
2023-02-22T18:43:43.197Z,22.33
2023-02-22T18:46:16.482Z,23.35
2023-02-22T18:48:44.504Z,20.83
2023-02-22T18:51:13.527Z,20.33
2023-02-22T18:53:41.541Z,25.30
2023-02-22T18:56:14.172Z,23.63
2023-02-22T18:58:43.242Z,22.02
2023-02-22T19:01:15.786Z,19.52
2023-02-22T19:03:42.879Z,23.15
2023-02-22T19:06:10.053Z,19.65
2023-02-22T19:08:41.110Z,21.95
2023-02-22T19:11:17.914Z,24.52
2023-02-22T19:13:46.527Z,20.35
2023-02-22T19:16:14.093Z,20.98
2023-02-22T19:18:40.679Z,21.40
2023-02-22T19:21:10.134Z,19.40
2023-02-22T19:23:39.545Z,21.95
2023-02-22T19:26:09.308Z,23.08
2023-02-22T19:28:36.082Z,23.33
2023-02-22T19:31:16.438Z,20.17
2023-02-22T19:33:43.808Z,23.25
2023-02-22T19:36:11.968Z,19.95
2023-02-22T19:38:38.883Z,19.67
2023-02-22T19:41:18.305Z,19.17
2023-02-22T19:43:50.425Z,19.42
2023-02-22T19:46:17.996Z,21.35
2023-02-22T19:48:45.567Z,22.98
2023-02-22T19:51:13.915Z,21.73
2023-02-22T19:53:41.568Z,21.63
2023-02-22T19:56:10.698Z,23.85
2023-02-22T19:58:38.453Z,23.48
2023-02-22T20:01:14.827Z,21.20
2023-02-22T20:03:42.356Z,21.35
2023-02-22T20:06:12.430Z,23.52
2023-02-22T20:08:42.324Z,21.05
2023-02-22T20:11:10.621Z,25.23
2023-02-22T20:13:41.343Z,24.70
2023-02-22T20:16:10.111Z,22.48
2023-02-22T20:18:37.067Z,21.65
2023-02-22T20:21:12.218Z,21.67
2023-02-22T20:23:44.344Z,23.63
2023-02-22T20:26:20.421Z,25.13
2023-02-22T20:28:47.126Z,23.88
2023-02-22T20:31:14.539Z,26.30
2023-02-22T20:33:43.494Z,23.70
2023-02-22T20:36:11.199Z,21.25
2023-02-22T20:38:38.685Z,21.00
2023-02-22T20:41:09.884Z,22.40
2023-02-22T20:43:36.417Z,26.50
2023-02-22T20:46:05.328Z,27.02
2023-02-22T20:48:32.760Z,24.77
2023-02-22T20:51:14.339Z,28.67
2023-02-22T20:53:43.588Z,26.00
2023-02-22T20:56:22.296Z,26.45
2023-02-22T20:58:49.969Z,22.45
2023-02-22T21:01:19.338Z,24.00
2023-02-22T21:03:47.014Z,23.42
2023-02-22T21:06:18.096Z,24.42
2023-02-22T21:08:49.415Z,25.80
2023-02-22T21:11:17.993Z,27.08
2023-02-22T21:13:44.688Z,27.15
2023-02-22T21:16:18.221Z,25.52
2023-02-22T21:18:44.836Z,28.85
2023-02-22T21:21:12.495Z,26.88
2023-02-22T21:23:40.730Z,27.20
2023-02-22T21:26:12.944Z,26.15
2023-02-22T21:28:50.863Z,28.58
2023-02-22T21:31:19.277Z,28.23
2023-02-22T21:33:52.834Z,28.80
2023-02-22T21:36:20.790Z,30.50
2023-02-22T21:38:53.388Z,25.85
2023-02-22T21:41:21.546Z,27.08
2023-02-22T21:43:51.865Z,26.65
2023-02-22T21:46:18.732Z,27.80
2023-02-22T21:48:48.862Z,26.88
2023-02-22T21:51:25.439Z,27.33
2023-02-22T21:53:54.840Z,25.92
2023-02-22T21:56:27.311Z,31.73
2023-02-22T21:58:59.554Z,24.77
2023-02-22T22:01:31.525Z,26.70
2023-02-22T22:04:00.166Z,26.08
2023-02-22T22:06:28.462Z,27.33
2023-02-22T22:08:56.552Z,26.17
2023-02-22T22:11:25.032Z,25.90
2023-02-22T22:13:53.627Z,25.98
2023-02-22T22:16:20.560Z,26.45
2023-02-22T22:18:47.337Z,26.55
2023-02-22T22:21:24.306Z,30.48
2023-02-22T22:23:54.339Z,27.30
2023-02-22T22:26:21.859Z,26.67
2023-02-22T22:28:51.933Z,28.60
2023-02-22T22:31:20.710Z,30.27
2023-02-22T22:33:47.714Z,29.15
2023-02-22T22:36:16.349Z,27.00
2023-02-22T22:38:43.269Z,30.25
2023-02-22T22:41:13.268Z,29.42
2023-02-22T22:43:41.563Z,30.92
2023-02-22T22:46:08.848Z,29.63
2023-02-22T22:48:39.033Z,29.85
2023-02-22T22:51:09.865Z,28.88
2023-02-22T22:53:42.861Z,30.90
2023-02-22T22:56:16.442Z,30.20
2023-02-22T22:58:48.002Z,27.73
2023-02-22T23:01:20.050Z,30.25
2023-02-22T23:03:53.907Z,30.95
2023-02-22T23:06:25.840Z,29.77
2023-02-22T23:09:10.373Z,29.98
2023-02-22T23:11:44.559Z,30.88
2023-02-22T23:14:14.897Z,27.95
2023-02-22T23:16:42.664Z,27.23
2023-02-22T23:19:09.383Z,27.63
2023-02-22T23:21:36.687Z,30.15
2023-02-22T23:24:07.594Z,32.58
2023-02-22T23:26:34.650Z,26.30
2023-02-22T23:29:01.520Z,33.20
2023-02-22T23:31:29.022Z,29.00
2023-02-22T23:33:58.558Z,32.33
2023-02-22T23:36:26.430Z,27.92
2023-02-22T23:38:54.389Z,28.63
2023-02-22T23:41:24.948Z,29.05
2023-02-22T23:43:51.752Z,27.65
2023-02-22T23:46:18.989Z,26.15
2023-02-22T23:48:51.195Z,29.92
2023-02-22T23:51:21.308Z,25.70
2023-02-22T23:53:49.086Z,28.45
2023-02-22T23:56:21.896Z,24.02
2023-02-22T23:58:52.423Z,32.22
